Time;durP1;ratioP1;P1;durP2;ratioP2;P2;SDS_P1;SDS_P2;PMS_P1;PMS_P2;Temp;Humidity;BMP_temperature;BMP_pressure;BME280_temperature;BME280_humidity;BME280_pressure;Samples;Min_cycle;Max_cycle;Signal;HPM_P1;HPM_P2
2024/04/05 05:27:32;;;;;;;0.20;0.20;;;;;;;16.88;77.98;75655.16;5044641;23;20049;-90
2024/04/05 05:29:58;;;;;;;0.20;0.20;;;;;;;17.23;75.37;75697.19;4995842;28;20034;-91
2024/04/05 05:32:23;;;;;;;0.20;0.20;;;;;;;17.54;73.72;75733.19;4977917;28;20034;-92
2024/04/05 05:34:52;;;;;;;0.20;0.20;;;;;;;17.90;71.36;75775.81;4977872;28;20034;-91
2024/04/05 05:37:17;;;;;;;0.20;0.20;;;;;;;18.43;70.14;75837.63;4977584;28;20117;-91
2024/04/05 05:39:43;;;;;;;0.20;0.20;;;;;;;18.84;66.86;75886.91;4994070;28;20108;-89
2024/04/05 05:42:09;;;;;;;0.20;0.20;;;;;;;18.83;66.08;75888.53;4982202;28;20040;-89
2024/04/05 05:44:34;;;;;;;0.20;0.20;;;;;;;19.25;65.58;75934.97;4972451;28;20027;-88
2024/04/05 05:47:00;;;;;;;0.20;0.20;;;;;;;20.25;61.81;76055.59;4974976;28;20031;-89
2024/04/05 05:49:25;;;;;;;0.20;0.20;;;;;;;19.63;63.27;75977.25;4981117;28;20101;-89
2024/04/05 05:51:50;;;;;;;0.20;0.20;;;;;;;20.62;57.97;76093.28;4965817;28;20026;-90
2024/04/05 05:54:16;;;;;;;0.10;0.10;;;;;;;20.07;59.53;76028.94;4978018;28;20176;-89
2024/04/05 05:56:41;;;;;;;0.20;0.20;;;;;;;20.60;57.88;76090.88;4976921;28;20553;-89
2024/04/05 05:59:08;;;;;;;0.20;0.20;;;;;;;19.39;61.65;75954.00;4992484;28;20034;-88
2024/04/05 06:01:33;;;;;;;0.20;0.20;;;;;;;20.18;59.57;76044.34;4973229;28;20086;-88
2024/04/05 06:04:00;;;;;;;0.20;0.20;;;;;;;19.91;59.61;76009.09;4958949;28;20510;-88
2024/04/05 06:06:26;;;;;;;0.20;0.20;;;;;;;20.87;56.30;76126.16;4972089;28;20149;-88
2024/04/05 06:08:52;;;;;;;0.20;0.20;;;;;;;21.36;53.88;76183.94;4971570;28;20538;-87
2024/04/05 06:11:17;;;;;;;0.20;0.20;;;;;;;20.71;55.47;76112.53;4975005;28;20548;-88
2024/04/05 06:13:45;;;;;;;0.20;0.20;;;;;;;20.40;55.99;76073.63;4993324;28;20109;-89
2024/04/05 06:16:10;;;;;;;0.20;0.20;;;;;;;20.55;55.66;76088.28;4979287;28;20113;-90
2024/04/05 06:18:35;;;;;;;0.20;0.20;;;;;;;20.34;57.64;76069.22;4973731;28;20556;-88
2024/04/05 06:21:01;;;;;;;0.20;0.20;;;;;;;19.92;59.39;76013.09;4973615;28;20029;-90
2024/04/05 06:23:29;;;;;;;0.20;0.20;;;;;;;19.97;58.30;76019.72;4964767;28;20061;-89
2024/04/05 06:25:58;;;;;;;0.20;0.20;;;;;;;21.11;55.52;76154.44;4940839;28;20047;-89
2024/04/05 06:28:23;;;;;;;0.20;0.20;;;;;;;20.17;57.95;76045.97;4956078;28;20038;-89
2024/04/05 06:30:54;;;;;;;0.20;0.20;;;;;;;20.71;56.26;76109.72;4973444;28;20027;-88
2024/04/05 06:33:20;;;;;;;0.20;0.20;;;;;;;20.01;58.55;76026.72;4969263;28;20399;-89
2024/04/05 06:35:45;;;;;;;0.20;0.20;;;;;;;20.42;58.05;76072.63;4956300;28;20030;-89
2024/04/05 06:38:11;;;;;;;0.20;0.20;;;;;;;20.67;56.60;76104.94;4974029;28;20542;-89
2024/04/05 06:40:37;;;;;;;0.20;0.20;;;;;;;21.65;54.65;76211.97;4974032;28;20379;-90
2024/04/05 06:43:03;;;;;;;0.20;0.20;;;;;;;21.19;54.17;76163.44;4974225;28;20391;-89
2024/04/05 06:45:29;;;;;;;0.20;0.20;;;;;;;20.72;56.76;76108.13;4955483;28;20117;-90
2024/04/05 06:47:55;;;;;;;0.20;0.20;;;;;;;20.39;57.98;76069.59;4957132;28;20109;-90
2024/04/05 06:50:22;;;;;;;0.20;0.20;;;;;;;20.17;57.07;76043.16;4956791;28;20088;-89
2024/04/05 06:52:48;;;;;;;0.20;0.20;;;;;;;19.92;60.68;76007.50;4956693;28;20039;-91
2024/04/05 06:55:13;;;;;;;0.20;0.20;;;;;;;20.35;59.46;76067.63;4957049;28;20370;-89
2024/04/05 06:57:39;;;;;;;0.20;0.20;;;;;;;20.63;57.67;76097.31;4974269;28;20628;-90
2024/04/05 07:00:06;;;;;;;0.20;0.20;;;;;;;20.32;59.49;76061.19;4952776;28;20027;-90
2024/04/05 07:02:32;;;;;;;0.20;0.20;;;;;;;20.37;58.76;76067.22;4936869;29;20038;-89
2024/04/05 07:04:58;;;;;;;0.20;0.20;;;;;;;20.53;58.13;76082.47;4937797;29;20127;-90
2024/04/05 07:07:24;;;;;;;0.20;0.20;;;;;;;20.71;57.96;76106.31;4953685;28;20491;-91
2024/04/05 07:09:49;;;;;;;0.20;0.20;;;;;;;20.60;58.14;76094.28;4939354;29;20035;-90
2024/04/05 07:12:15;;;;;;;0.20;0.20;;;;;;;20.55;58.20;76087.66;4965880;28;20039;-90
2024/04/05 07:14:41;;;;;;;0.20;0.20;;;;;;;19.65;61.57;75984.66;4941642;28;20034;-91
2024/04/05 07:17:06;;;;;;;0.20;0.20;;;;;;;19.26;64.12;75932.78;4937891;29;20087;-92
2024/04/05 07:19:31;;;;;;;0.20;0.20;;;;;;;18.72;68.18;75877.50;4951887;28;20035;-92
2024/04/05 07:21:57;;;;;;;0.20;0.20;;;;;;;19.77;63.63;75993.47;4948468;28;20475;-92
2024/04/05 07:24:22;;;;;;;0.20;0.20;;;;;;;19.80;61.75;76002.69;4937224;29;20086;-92
2024/04/05 07:26:48;;;;;;;0.20;0.20;;;;;;;19.82;62.18;76005.09;4937767;28;20052;-89
2024/04/05 07:29:13;;;;;;;0.20;0.20;;;;;;;19.56;64.74;75974.44;4952050;28;20380;-90
2024/04/05 07:31:39;;;;;;;0.20;0.20;;;;;;;20.25;60.35;76058.41;4956355;28;20481;-89
2024/04/05 07:34:05;;;;;;;0.20;0.20;;;;;;;20.53;59.72;76088.69;4956512;28;20031;-89
2024/04/05 07:36:31;;;;;;;0.20;0.20;;;;;;;20.61;60.72;76094.88;4956154;28;20057;-90
2024/04/05 07:38:57;;;;;;;0.20;0.20;;;;;;;21.45;56.24;76189.13;4957185;28;20011;-88
2024/04/05 07:41:22;;;;;;;0.20;0.20;;;;;;;21.45;55.72;76194.13;4960188;28;20047;-88
2024/04/05 07:43:49;;;;;;;0.10;0.10;;;;;;;21.78;54.53;76229.81;4956400;28;20130;-88
2024/04/05 07:46:14;;;;;;;0.10;0.10;;;;;;;20.97;56.96;76131.97;4942206;29;20062;-88
2024/04/05 07:48:40;;;;;;;0.20;0.20;;;;;;;20.09;61.33;76033.56;4941721;29;20031;-88
2024/04/05 07:51:06;;;;;;;0.10;0.10;;;;;;;21.10;58.74;76147.00;4941157;28;20027;-89
2024/04/05 07:53:31;;;;;;;0.20;0.20;;;;;;;21.53;56.15;76203.19;4976750;28;20031;-88
2024/04/05 07:55:59;;;;;;;0.10;0.10;;;;;;;21.79;54.69;76237.28;4952428;28;20139;-89
2024/04/05 07:58:25;;;;;;;0.10;0.10;;;;;;;21.00;58.00;76140.59;4949751;28;20019;-89
2024/04/05 08:00:50;;;;;;;0.20;0.20;;;;;;;20.67;58.19;76105.53;4954952;28;20041;-90
2024/04/05 08:03:16;;;;;;;0.20;0.20;;;;;;;21.52;56.93;76202.56;4961059;28;20035;-89
2024/04/05 08:05:41;;;;;;;0.15;0.15;;;;;;;21.86;55.50;76239.47;4958083;28;20038;-88
2024/04/05 08:08:10;;;;;;;0.10;0.10;;;;;;;20.83;57.70;76120.75;4942476;28;20126;-89
2024/04/05 08:10:36;;;;;;;0.20;0.20;;;;;;;20.57;59.64;76090.69;4960250;28;20062;-89
2024/04/05 08:13:01;;;;;;;0.20;0.20;;;;;;;22.49;53.82;76311.28;4977101;28;20069;-89
2024/04/05 08:15:29;;;;;;;0.20;0.20;;;;;;;23.19;51.41;76394.41;4957976;28;20054;-88
2024/04/05 08:17:55;;;;;;;0.10;0.10;;;;;;;22.42;52.59;76305.69;4966960;28;20109;-88
2024/04/05 08:20:21;;;;;;;0.20;0.20;;;;;;;22.68;52.23;76339.19;4958882;28;20122;-88
2024/04/05 08:22:46;;;;;;;0.20;0.20;;;;;;;23.37;50.46;76426.75;4974337;28;20030;-88
2024/04/05 08:25:14;;;;;;;0.20;0.20;;;;;;;23.74;49.92;76465.09;4970075;28;20374;-88
2024/04/05 08:27:49;;;;;;;0.20;0.20;;;;;;;23.08;50.34;76380.56;4974993;28;20447;-89
2024/04/05 08:30:18;;;;;;;0.10;0.10;;;;;;;23.55;48.76;76444.41;4956756;28;20038;-88
2024/04/05 08:32:44;;;;;;;0.10;0.10;;;;;;;21.35;54.89;76182.72;4956769;29;20518;-88
2024/04/05 08:35:09;;;;;;;0.10;0.10;;;;;;;21.69;54.96;76223.03;4954635;28;20030;-88
2024/04/05 08:37:36;;;;;;;0.10;0.10;;;;;;;22.13;53.29;76271.38;4976836;28;20035;-90
2024/04/05 08:40:03;;;;;;;0.10;0.10;;;;;;;22.77;51.92;76352.84;4958892;28;20097;-88
2024/04/05 08:42:31;;;;;;;0.10;0.10;;;;;;;22.07;53.66;76267.56;4975958;28;20071;-88
2024/04/05 08:44:57;;;;;;;0.17;0.17;;;;;;;22.43;51.66;76306.91;4972122;28;20505;-88
2024/04/05 08:47:24;;;;;;;0.10;0.10;;;;;;;23.21;49.43;76399.00;4956989;28;20102;-90
2024/04/05 08:49:52;;;;;;;0.10;0.10;;;;;;;23.72;48.73;76459.88;4956922;28;20038;-89
2024/04/05 08:52:18;;;;;;;0.10;0.10;;;;;;;23.26;49.30;76402.22;4939321;29;20024;-89
2024/04/05 08:54:43;;;;;;;0.10;0.10;;;;;;;23.79;48.57;76470.53;4940081;28;20057;-88
2024/04/05 08:57:10;;;;;;;0.10;0.10;;;;;;;24.01;47.67;76497.03;4939765;29;20026;-88
2024/04/05 08:59:36;;;;;;;0.10;0.10;;;;;;;23.79;47.79;76471.13;4939468;29;20496;-88
2024/04/05 09:02:02;;;;;;;0.10;0.10;;;;;;;24.48;46.09;76549.66;4939402;29;20078;-88
2024/04/05 09:04:28;;;;;;;0.10;0.10;;;;;;;23.80;46.72;76466.06;4939481;29;20410;-87
2024/04/05 09:06:54;;;;;;;0.10;0.10;;;;;;;24.22;45.80;76515.47;4939564;29;20031;-89
2024/04/05 09:09:31;;;;;;;0.10;0.10;;;;;;;24.62;44.46;76568.16;4941346;28;20080;-89
2024/04/05 09:12:21;;;;;;;0.10;0.10;;;;;;;24.49;45.83;76548.03;4958606;28;20722;-89
2024/04/05 09:14:58;;;;;;;0.10;0.10;;;;;;;24.59;45.73;76559.47;4957728;28;20039;-89
2024/04/05 09:17:25;;;;;;;0.10;0.10;;;;;;;25.46;44.35;76668.25;4960666;28;20023;-87
2024/04/05 09:20:03;;;;;;;0.10;0.10;;;;;;;24.51;45.34;76556.09;4952457;28;20513;-88
2024/04/05 09:22:28;;;;;;;0.10;0.10;;;;;;;24.93;44.21;76602.72;4959606;28;20578;-88
2024/04/05 09:25:04;;;;;;;0.10;0.10;;;;;;;23.98;45.55;76487.16;4943690;28;20031;-89
2024/04/05 09:27:32;;;;;;;0.20;0.20;;;;;;;24.55;44.86;76558.09;4955881;28;20415;-89
2024/04/05 09:30:03;;;;;;;0.10;0.10;;;;;;;24.38;45.43;76534.19;4957512;28;20038;-89
2024/04/05 09:32:29;;;;;;;0.10;0.10;;;;;;;23.97;45.77;76488.78;4956126;28;20121;-89
2024/04/05 09:34:56;;;;;;;0.10;0.10;;;;;;;23.18;47.59;76392.59;4938999;29;20023;-90
2024/04/05 09:37:25;;;;;;;0.13;0.13;;;;;;;23.27;48.63;76403.41;4938899;29;20135;-90
2024/04/05 09:39:51;;;;;;;0.20;0.20;;;;;;;23.91;46.91;76479.31;4938656;29;20027;-89
2024/04/05 09:42:21;;;;;;;0.20;0.20;;;;;;;23.88;46.98;76475.13;4950277;28;20054;-90
2024/04/05 09:44:50;;;;;;;0.20;0.20;;;;;;;23.32;48.53;76415.09;4938760;29;20076;-90
2024/04/05 09:47:18;;;;;;;0.20;0.20;;;;;;;23.43;47.77;76427.72;4944030;28;20034;-89
2024/04/05 09:49:44;;;;;;;0.20;0.20;;;;;;;23.40;48.14;76421.91;4957254;28;20069;-89
2024/04/05 09:52:13;;;;;;;0.13;0.13;;;;;;;23.83;47.25;76472.53;4957169;28;20457;-88
2024/04/05 09:54:40;;;;;;;0.20;0.20;;;;;;;24.13;46.07;76510.28;4960899;28;20035;-88
2024/04/05 09:57:11;;;;;;;0.20;0.20;;;;;;;23.67;46.17;76450.44;4963676;28;20034;-89
2024/04/05 09:59:40;;;;;;;0.10;0.10;;;;;;;23.05;48.08;76376.94;4974633;28;20389;-90
2024/04/05 10:02:06;;;;;;;0.17;0.17;;;;;;;23.61;46.98;76443.19;4974084;28;20031;-90
2024/04/05 10:04:36;;;;;;;0.20;0.20;;;;;;;23.22;47.68;76403.03;4945957;28;20419;-90
2024/04/05 10:07:05;;;;;;;0.20;0.20;;;;;;;23.34;48.27;76411.84;4961456;28;20035;-90
2024/04/05 10:09:34;;;;;;;0.20;0.20;;;;;;;24.02;47.16;76498.25;4941144;29;20023;-89
2024/04/05 10:12:13;;;;;;;0.10;0.10;;;;;;;24.78;45.53;76581.78;4949026;28;20054;-88
2024/04/05 10:14:40;;;;;;;0.10;0.10;;;;;;;24.79;45.68;76586.41;4976281;28;20035;-89
2024/04/05 10:17:11;;;;;;;0.20;0.20;;;;;;;24.88;44.98;76593.84;4958173;28;20022;-89
2024/04/05 10:19:38;;;;;;;0.10;0.10;;;;;;;24.90;45.45;76599.09;4954009;29;20054;-88
2024/04/05 10:22:12;;;;;;;0.10;0.10;;;;;;;24.91;46.15;76602.50;4945962;28;20387;-89
2024/04/05 10:24:38;;;;;;;0.10;0.10;;;;;;;25.40;45.44;76655.34;4954924;28;20418;-88
2024/04/05 10:27:05;;;;;;;0.10;0.10;;;;;;;24.88;45.77;76596.69;4938204;29;20062;-89
2024/04/05 10:29:33;;;;;;;0.10;0.10;;;;;;;23.76;47.90;76458.44;4955295;28;20039;-88
2024/04/05 10:32:09;;;;;;;0.10;0.10;;;;;;;24.98;46.26;76608.72;4970276;28;20023;-88
2024/04/05 10:34:37;;;;;;;0.10;0.10;;;;;;;24.67;46.61;76568.53;4942692;28;20034;-89
2024/04/05 10:37:09;;;;;;;0.10;0.10;;;;;;;24.00;48.45;76492.41;4956597;28;20042;-89
2024/04/05 10:39:35;;;;;;;0.10;0.10;;;;;;;24.26;48.04;76525.94;4948402;28;20121;-88
2024/04/05 10:42:00;;;;;;;0.20;0.20;;;;;;;23.87;49.02;76480.16;4957599;28;20122;-89
2024/04/05 10:44:26;;;;;;;0.10;0.10;;;;;;;24.87;47.56;76589.19;4962995;28;20550;-88
2024/04/05 10:46:53;;;;;;;0.20;0.20;;;;;;;23.55;50.42;76442.19;4957634;28;20565;-88
2024/04/05 10:49:19;;;;;;;0.10;0.10;;;;;;;23.79;50.57;76467.69;4956276;28;20512;-88
2024/04/05 10:51:46;;;;;;;0.13;0.13;;;;;;;23.38;51.87;76419.47;4972124;28;20046;-89
2024/04/05 10:54:14;;;;;;;0.15;0.15;;;;;;;22.79;53.60;76352.44;4953310;28;20030;-89
2024/04/05 10:56:42;;;;;;;0.10;0.10;;;;;;;22.39;55.25;76302.69;4937845;29;20451;-89
2024/04/05 10:59:13;;;;;;;0.20;0.20;;;;;;;23.00;54.54;76377.75;4937660;29;20023;-89
2024/04/05 11:01:40;;;;;;;0.10;0.10;;;;;;;23.39;52.85;76420.09;4954398;28;20054;-89
2024/04/05 11:04:10;;;;;;;0.10;0.10;;;;;;;23.04;53.43;76376.31;4937978;28;20403;-87
2024/04/05 11:06:37;;;;;;;0.10;0.10;;;;;;;23.13;53.18;76392.22;4952174;29;20151;-88
2024/04/05 11:09:03;;;;;;;0.10;0.10;;;;;;;23.75;52.43;76462.88;4966399;28;20592;-89
2024/04/05 11:11:28;;;;;;;0.10;0.10;;;;;;;23.92;51.95;76483.38;4942682;29;20027;-89
2024/04/05 11:14:05;;;;;;;0.20;0.20;;;;;;;24.25;50.90;76521.94;4954764;28;20389;-88
2024/04/05 11:16:35;;;;;;;0.10;0.10;;;;;;;23.32;51.81;76412.25;4973623;28;20126;-89
2024/04/05 11:19:02;;;;;;;0.10;0.10;;;;;;;23.13;53.17;76389.41;4953401;28;20019;-88
2024/04/05 11:21:28;;;;;;;0.10;0.10;;;;;;;22.76;54.59;76343.19;4956580;28;20109;-88
2024/04/05 11:23:55;;;;;;;0.10;0.10;;;;;;;22.63;54.84;76333.16;4953583;28;21540;-89
2024/04/05 11:26:21;;;;;;;0.10;0.10;;;;;;;22.51;55.15;76319.34;4950744;28;20526;-89
2024/04/05 11:28:48;;;;;;;0.10;0.10;;;;;;;22.92;53.10;76368.13;4963731;28;20030;-89
2024/04/05 11:31:15;;;;;;;0.20;0.20;;;;;;;22.10;54.83;76265.53;4954507;28;20045;-88
2024/04/05 11:33:40;;;;;;;0.20;0.20;;;;;;;22.90;53.81;76359.47;4955946;28;20019;-89
2024/04/05 11:36:08;;;;;;;0.10;0.10;;;;;;;23.23;53.05;76401.44;4969747;28;20051;-89
2024/04/05 11:38:34;;;;;;;0.10;0.10;;;;;;;22.62;53.91;76331.97;4949864;28;20038;-90
2024/04/05 11:41:05;;;;;;;0.20;0.20;;;;;;;22.54;53.61;76322.34;4946779;28;20031;-88
2024/04/05 11:43:31;;;;;;;0.10;0.10;;;;;;;22.79;52.49;76355.25;4954298;28;20038;-89
2024/04/05 11:45:57;;;;;;;0.10;0.10;;;;;;;23.61;49.91;76443.78;4973159;28;20073;-88
2024/04/05 11:48:23;;;;;;;0.10;0.10;;;;;;;23.81;49.68;76469.50;4951340;28;20051;-89
2024/04/05 11:50:50;;;;;;;0.10;0.10;;;;;;;23.89;48.34;76476.91;4956254;28;20038;-89
2024/04/05 11:53:15;;;;;;;0.20;0.20;;;;;;;22.76;51.04;76343.19;4950983;28;20051;-89
2024/04/05 11:55:41;;;;;;;0.20;0.20;;;;;;;22.71;50.98;76340.00;4956486;28;20026;-88
2024/04/05 11:58:06;;;;;;;0.10;0.10;;;;;;;22.46;52.24;76308.28;4956332;28;20098;-90
2024/04/05 12:00:32;;;;;;;0.20;0.20;;;;;;;23.11;50.44;76384.16;4968089;28;20467;-89
2024/04/05 12:02:57;;;;;;;0.13;0.13;;;;;;;22.54;51.76;76316.72;4972047;28;20026;-88
2024/04/05 12:05:25;;;;;;;0.10;0.10;;;;;;;22.79;51.35;76346.19;4972679;28;20070;-90
2024/04/05 12:07:52;;;;;;;0.20;0.20;;;;;;;22.98;51.52;76375.34;4940475;28;20614;-89
2024/04/05 12:10:18;;;;;;;0.10;0.10;;;;;;;22.52;52.79;76320.53;4948710;28;20050;-88
2024/04/05 12:12:44;;;;;;;0.10;0.10;;;;;;;22.82;53.19;76356.06;4944227;29;20047;-88
2024/04/05 12:15:10;;;;;;;0.10;0.10;;;;;;;22.16;52.95;76275.00;4947756;29;20019;-88
2024/04/05 12:17:37;;;;;;;0.10;0.10;;;;;;;22.29;53.78;76296.28;4940620;29;20051;-89
2024/04/05 12:20:06;;;;;;;0.20;0.20;;;;;;;21.63;53.73;76215.81;4957629;28;20015;-89
2024/04/05 12:22:31;;;;;;;0.10;0.10;;;;;;;21.49;54.45;76198.97;4956721;28;20664;-91
2024/04/05 12:24:57;;;;;;;0.20;0.20;;;;;;;21.66;54.55;76216.00;4956670;28;20027;-90
2024/04/05 12:27:22;;;;;;;0.20;0.20;;;;;;;20.97;55.09;76139.78;4964152;28;20731;-89
2024/04/05 12:29:48;;;;;;;0.20;0.20;;;;;;;21.30;55.89;76176.09;4958273;28;20034;-90
2024/04/05 12:32:17;;;;;;;0.20;0.20;;;;;;;21.13;56.39;76156.22;4950880;28;20430;-91
2024/04/05 12:34:42;;;;;;;0.20;0.20;;;;;;;21.33;56.51;76177.50;4960115;28;20038;-90
2024/04/05 12:37:09;;;;;;;0.10;0.10;;;;;;;20.62;59.97;76090.47;4959795;28;20023;-89
2024/04/05 12:39:36;;;;;;;0.10;0.10;;;;;;;21.23;59.82;76168.25;4958105;28;20077;-91
2024/04/05 12:42:02;;;;;;;0.10;0.10;;;;;;;21.01;60.58;76144.59;4959705;28;20378;-89
2024/04/05 12:44:29;;;;;;;0.10;0.10;;;;;;;20.88;61.75;76127.38;4959172;28;20082;-90
2024/04/05 12:46:55;;;;;;;0.20;0.20;;;;;;;21.40;61.25;76185.31;4951765;28;20037;-90
2024/04/05 12:49:20;;;;;;;0.20;0.20;;;;;;;21.00;63.56;76143.41;4939947;29;20391;-90
2024/04/05 12:51:46;;;;;;;0.28;0.28;;;;;;;21.57;62.78;76207.97;4970261;28;20062;-91
2024/04/05 12:54:11;;;;;;;0.20;0.20;;;;;;;21.93;60.85;76245.06;4946438;28;20479;-89
2024/04/05 12:56:37;;;;;;;0.20;0.20;;;;;;;21.50;63.11;76196.75;4969816;28;20077;-90
2024/04/05 12:59:02;;;;;;;0.20;0.20;;;;;;;21.51;63.14;76197.94;4954725;28;20031;-90
2024/04/05 13:01:28;;;;;;;0.20;0.20;;;;;;;22.18;61.51;76280.81;4953014;28;20410;-89
2024/04/05 13:03:53;;;;;;;0.10;0.10;;;;;;;21.49;62.15;76195.53;4950182;29;20035;-90
2024/04/05 13:06:19;;;;;;;0.15;0.15;;;;;;;21.84;61.78;76240.47;4939585;29;20024;-90
2024/04/05 13:08:46;;;;;;;0.10;0.10;;;;;;;21.64;63.06;76222.63;4944946;28;20030;-89
2024/04/05 13:11:14;;;;;;;0.20;0.20;;;;;;;21.24;63.72;76169.44;4950475;28;20015;-89
2024/04/05 13:13:40;;;;;;;0.20;0.20;;;;;;;21.91;62.63;76246.09;4945413;29;20034;-91
2024/04/05 13:16:06;;;;;;;0.20;0.20;;;;;;;21.60;63.71;76211.59;4968868;28;20030;-88
2024/04/05 13:18:36;;;;;;;0.20;0.20;;;;;;;21.76;62.90;76230.84;4957460;28;20486;-88
2024/04/05 13:21:06;;;;;;;0.20;0.20;;;;;;;21.49;63.83;76198.38;4954273;28;20054;-91
2024/04/05 13:23:36;;;;;;;0.20;0.20;;;;;;;21.23;65.11;76168.25;4946480;28;20038;-90
2024/04/05 13:26:19;;;;;;;0.10;0.10;;;;;;;21.55;64.65;76199.94;4940944;28;20135;-89
2024/04/05 13:28:48;;;;;;;0.10;0.10;;;;;;;21.78;63.69;76233.25;4950289;28;20023;-89
2024/04/05 13:31:14;;;;;;;0.10;0.10;;;;;;;21.48;64.54;76197.16;4946011;28;20025;-90
2024/04/05 13:33:40;;;;;;;0.10;0.10;;;;;;;21.58;63.81;76209.78;4949338;28;20030;-89
2024/04/05 13:36:10;;;;;;;0.20;0.20;;;;;;;21.63;64.14;76209.59;4947336;28;20094;-89
2024/04/05 13:38:37;;;;;;;0.20;0.20;;;;;;;22.23;62.06;76283.41;4940128;28;20410;-91
2024/04/05 13:41:03;;;;;;;0.15;0.15;;;;;;;22.43;61.39;76306.91;4947822;28;20023;-90
2024/04/05 13:43:29;;;;;;;0.10;0.10;;;;;;;22.16;62.50;76272.19;4958251;28;20481;-91
2024/04/05 13:46:18;;;;;;;0.20;0.20;;;;;;;21.90;63.11;76250.50;4952757;28;20138;-91
2024/04/05 13:48:45;;;;;;;0.10;0.10;;;;;;;22.00;62.98;76252.88;4953770;28;20482;-92
2024/04/05 13:51:11;;;;;;;0.20;0.20;;;;;;;21.41;64.31;76192.75;4954878;28;20031;-91
2024/04/05 13:53:37;;;;;;;0.20;0.20;;;;;;;21.57;65.12;76202.34;4947010;29;20050;-89
2024/04/05 13:56:04;;;;;;;0.10;0.10;;;;;;;21.35;65.38;76182.72;4944369;28;20170;-89
2024/04/05 13:58:30;;;;;;;0.20;0.20;;;;;;;21.08;67.46;76144.59;4948136;28;20022;-92
2024/04/05 14:00:58;;;;;;;0.13;0.13;;;;;;;21.15;68.30;76158.66;4944452;28;20686;-89
2024/04/05 14:03:24;;;;;;;0.20;0.20;;;;;;;20.77;70.29;76108.50;4974678;28;20078;-89
2024/04/05 14:05:50;;;;;;;0.10;0.10;;;;;;;20.87;70.60;76120.53;4953222;28;20035;-91
2024/04/05 14:08:16;;;;;;;0.10;0.10;;;;;;;20.58;71.78;76091.28;4955829;28;20031;-91
2024/04/05 14:10:43;;;;;;;0.20;0.20;;;;;;;20.37;73.21;76072.81;4944171;28;20030;-90
2024/04/05 14:13:09;;;;;;;0.10;0.10;;;;;;;20.30;74.33;76058.81;4953231;28;20027;-90
2024/04/05 14:15:35;;;;;;;0.20;0.20;;;;;;;20.33;73.23;76062.41;4953489;28;20041;-91
2024/04/05 14:18:00;;;;;;;0.20;0.20;;;;;;;20.73;72.28;76106.53;4953854;28;20683;-91
2024/04/05 14:20:26;;;;;;;0.10;0.10;;;;;;;20.20;74.71;76043.97;4958245;28;20035;-90
2024/04/05 14:22:51;;;;;;;0.20;0.20;;;;;;;20.80;73.90;76119.94;4943532;29;20030;-89
2024/04/05 14:25:20;;;;;;;0.13;0.13;;;;;;;21.12;70.67;76155.03;4968066;28;20062;-91
2024/04/05 14:27:45;;;;;;;0.20;0.20;;;;;;;20.67;73.10;76102.13;4974579;28;20038;-92
2024/04/05 14:30:13;;;;;;;0.10;0.10;;;;;;;20.58;73.14;76091.28;4957219;28;20027;-91
2024/04/05 14:32:39;;;;;;;0.10;0.10;;;;;;;21.04;71.42;76145.41;4960310;28;20082;-91
2024/04/05 14:35:05;;;;;;;0.20;0.20;;;;;;;20.74;72.47;76110.53;4945206;29;20031;-91
2024/04/05 14:37:31;;;;;;;0.20;0.20;;;;;;;20.89;72.51;76127.97;4940812;28;20027;-90
2024/04/05 14:39:56;;;;;;;0.20;0.20;;;;;;;20.74;72.63;76110.53;4958289;28;20033;-92
2024/04/05 14:42:22;;;;;;;0.20;0.20;;;;;;;20.14;74.39;76039.56;4962212;28;20034;-90
2024/04/05 14:44:52;;;;;;;0.10;0.10;;;;;;;20.29;74.55;76054.78;4942874;28;20039;-91
2024/04/05 14:47:20;;;;;;;0.20;0.20;;;;;;;20.35;73.53;76062.00;4955169;28;20031;-91
2024/04/05 14:49:45;;;;;;;0.20;0.20;;;;;;;20.10;74.94;76032.53;4957328;28;20038;-91
2024/04/05 14:52:10;;;;;;;0.10;0.10;;;;;;;20.22;74.32;76051.97;4957852;28;20058;-91
2024/04/05 14:54:36;;;;;;;0.13;0.13;;;;;;;20.20;73.80;76046.78;4950204;29;20027;-92
2024/04/05 14:57:01;;;;;;;0.20;0.20;;;;;;;20.30;73.79;76058.81;4967099;28;20023;-90
2024/04/05 14:59:26;;;;;;;0.20;0.20;;;;;;;20.37;73.42;76063.81;4949787;28;20049;-89
2024/04/05 15:01:52;;;;;;;0.10;0.10;;;;;;;20.47;72.85;76072.44;4943681;29;20034;-90
2024/04/05 15:04:17;;;;;;;0.20;0.20;;;;;;;20.35;72.61;76059.19;4953989;28;20642;-90
2024/04/05 15:06:45;;;;;;;0.20;0.20;;;;;;;20.48;73.26;76079.84;4953541;28;20031;-90
2024/04/05 15:09:12;;;;;;;0.15;0.15;;;;;;;20.53;72.98;76085.88;4951078;29;20038;-90
2024/04/05 15:11:38;;;;;;;0.20;0.20;;;;;;;19.73;75.54;75994.28;4938538;28;20110;-92
2024/04/05 15:14:05;;;;;;;0.13;0.13;;;;;;;20.44;74.06;76080.03;4956147;28;20628;-90
2024/04/05 15:16:35;;;;;;;0.20;0.20;;;;;;;20.12;74.10;76043.38;4956599;28;20034;-91
2024/04/05 15:19:01;;;;;;;0.20;0.20;;;;;;;20.07;75.40;76031.13;4953394;28;20105;-91
2024/04/05 15:21:26;;;;;;;0.10;0.10;;;;;;;20.19;74.28;76044.97;4955561;28;20182;-90
2024/04/05 15:23:52;;;;;;;0.20;0.20;;;;;;;19.78;75.65;76000.28;4952762;28;20054;-90
2024/04/05 15:27:10;;;;;;;0.20;0.20;;;;;;;20.23;74.57;76047.56;4938434;28;20051;-89
2024/04/05 15:29:35;;;;;;;0.10;0.10;;;;;;;20.11;74.76;76035.94;4955068;28;20035;-91
2024/04/05 15:32:01;;;;;;;0.20;0.20;;;;;;;19.95;73.96;76022.94;4940075;28;20089;-90
2024/04/05 15:34:28;;;;;;;0.20;0.20;;;;;;;20.49;71.82;76080.47;4946634;28;20805;-91
2024/04/05 15:36:53;;;;;;;0.20;0.20;;;;;;;20.26;71.79;76054.00;4951001;28;20035;-90
2024/04/05 15:39:18;;;;;;;0.20;0.20;;;;;;;19.94;73.34;76021.72;4959813;28;20026;-91
2024/04/05 15:41:44;;;;;;;0.20;0.20;;;;;;;19.89;74.07;76013.50;4953099;28;20126;-92
2024/04/05 15:44:09;;;;;;;0.13;0.13;;;;;;;20.15;73.44;76040.75;4956719;28;20142;-91
2024/04/05 15:46:35;;;;;;;0.20;0.20;;;;;;;19.94;74.12;76016.13;4954765;28;20495;-92
2024/04/05 15:49:00;;;;;;;0.20;0.20;;;;;;;19.89;75.34;76010.09;4956033;28;20078;-91
2024/04/05 15:51:26;;;;;;;0.20;0.20;;;;;;;19.98;74.38;76020.34;4956938;28;20019;-91
2024/04/05 15:53:58;;;;;;;0.13;0.13;;;;;;;19.77;76.93;75990.69;4960964;28;20027;-91
2024/04/05 15:56:25;;;;;;;0.20;0.20;;;;;;;19.66;78.08;75985.88;4949060;28;20032;-92
2024/04/05 15:58:51;;;;;;;0.10;0.10;;;;;;;19.71;77.61;75989.09;4950163;28;20035;-91
2024/04/05 16:01:17;;;;;;;0.10;0.10;;;;;;;19.71;77.29;75994.69;4976000;28;20027;-92
2024/04/05 16:03:42;;;;;;;0.20;0.20;;;;;;;19.46;79.05;75959.59;4959062;28;20053;-91
2024/04/05 16:06:08;;;;;;;0.20;0.20;;;;;;;19.11;80.20;75918.75;4961667;28;20030;-92
2024/04/05 16:08:33;;;;;;;0.20;0.20;;;;;;;19.47;79.72;75960.22;4961646;28;20049;-93
2024/04/05 16:11:00;;;;;;;0.20;0.20;;;;;;;19.29;79.67;75939.19;4957393;28;20035;-93
2024/04/05 16:13:26;;;;;;;0.20;0.20;;;;;;;18.89;80.84;75888.91;4957170;28;20034;-94
2024/04/05 16:16:36;;;;;;;0.20;0.20;;;;;;;19.18;80.57;75923.78;4974057;28;20023;-95
2024/04/05 16:19:01;;;;;;;0.20;0.20;;;;;;;18.99;80.63;75900.94;4942958;28;20087;-93
2024/04/05 16:21:26;;;;;;;0.20;0.20;;;;;;;18.72;81.28;75871.91;4960199;28;20494;-91
2024/04/05 16:23:55;;;;;;;0.15;0.15;;;;;;;18.69;82.26;75868.91;4950048;28;20533;-90
2024/04/05 16:36:34;;;;;;;0.20;0.20;;;;;;;18.52;85.34;75849.06;4943597;29;20534;-92
2024/04/05 16:38:59;;;;;;;0.20;0.20;;;;;;;18.15;87.30;75810.81;4953880;29;20040;-93
2024/04/05 16:41:25;;;;;;;0.20;0.20;;;;;;;18.37;87.40;75836.03;4943604;29;20122;-93
2024/04/05 16:43:50;;;;;;;0.20;0.20;;;;;;;18.28;87.80;75823.03;4951888;29;20050;-95
2024/04/05 16:46:19;;;;;;;0.20;0.20;;;;;;;18.26;88.33;75818.44;4950805;28;20075;-92
2024/04/05 16:48:46;;;;;;;0.20;0.20;;;;;;;17.95;89.96;75786.81;4951351;29;20035;-93
2024/04/05 16:51:20;;;;;;;0.20;0.20;;;;;;;17.96;90.22;75788.03;4947921;29;20122;-93
2024/04/05 16:53:47;;;;;;;0.20;0.20;;;;;;;17.59;92.33;75738.59;4958844;28;20035;-93
2024/04/05 16:56:15;;;;;;;0.20;0.20;;;;;;;17.47;92.94;75728.19;4966199;29;20032;-94
2024/04/05 16:58:42;;;;;;;0.20;0.20;;;;;;;17.42;94.39;75724.38;4960484;28;20127;-93
2024/04/05 17:01:15;;;;;;;0.20;0.20;;;;;;;17.23;95.15;75699.38;4958501;29;20099;-94
2024/04/05 17:03:41;;;;;;;0.20;0.20;;;;;;;17.11;96.82;75687.78;4962519;29;20142;-94
2024/04/05 17:06:09;;;;;;;0.20;0.20;;;;;;;16.98;98.15;75672.75;4959592;29;20183;-94
2024/04/05 17:14:43;;;;;;;0.20;0.20;;;;;;;16.29;100.00;75586.19;5005989;23;20805;-93
2024/04/05 17:17:09;;;;;;;0.20;0.20;;;;;;;16.45;100.00;75610.34;4940350;29;20035;-94